Time;durP1;ratioP1;P1;durP2;ratioP2;P2;SDS_P1;SDS_P2;PMS_P1;PMS_P2;Temp;Humidity;BMP_temperature;BMP_pressure;BME280_temperature;BME280_humidity;BME280_pressure;Samples;Min_cycle;Max_cycle;Signal;HPM_P1;HPM_P2
2022/07/04 00:02:25;;;;;;;0.10;0.10;;;;;;;8.14;100.00;101472.56;5056938;28;20479;-61
2022/07/04 00:05:18;;;;;;;0.38;0.10;;;;;;;8.15;100.00;101473.41;5052214;28;20378;-62
2022/07/04 00:08:10;;;;;;;0.73;0.10;;;;;;;8.16;100.00;101472.41;5062264;28;20107;-60
2022/07/04 00:11:03;;;;;;;2.38;0.22;;;;;;;8.10;100.00;101468.56;5045106;28;20036;-60
2022/07/04 00:13:55;;;;;;;2.60;0.10;;;;;;;8.08;100.00;101455.53;5054527;28;20040;-58
2022/07/04 00:16:47;;;;;;;0.10;0.10;;;;;;;8.10;100.00;101458.00;5041355;28;20474;-57
2022/07/04 00:19:39;;;;;;;0.40;0.10;;;;;;;8.06;100.00;101452.19;5061582;28;20109;-58
2022/07/04 00:22:32;;;;;;;0.70;0.10;;;;;;;7.99;100.00;101451.13;5058717;28;20511;-56
2022/07/04 00:25:24;;;;;;;0.47;0.45;;;;;;;7.91;100.00;101451.06;5054206;28;20033;-52
2022/07/04 00:28:16;;;;;;;2.05;0.10;;;;;;;7.83;100.00;101448.34;5059312;28;20442;-55
2022/07/04 00:31:09;;;;;;;3.10;0.15;;;;;;;7.80;100.00;101453.91;5057235;28;20115;-58
2022/07/04 00:34:01;;;;;;;1.40;0.08;;;;;;;7.70;100.00;101453.16;5061089;28;20031;-59
2022/07/04 00:36:53;;;;;;;0.50;0.05;;;;;;;7.60;100.00;101446.09;5053205;28;20045;-54
2022/07/04 00:39:46;;;;;;;0.65;0.08;;;;;;;7.53;100.00;101460.84;5053576;28;20450;-57
2022/07/04 00:42:38;;;;;;;1.08;0.63;;;;;;;7.57;100.00;101458.78;5056561;28;20068;-58
2022/07/04 00:45:30;;;;;;;2.65;0.10;;;;;;;7.66;100.00;101463.16;5061499;28;20025;-58
2022/07/04 00:48:23;;;;;;;0.47;0.10;;;;;;;7.84;100.00;101471.09;5059486;28;20055;-60
2022/07/04 00:51:15;;;;;;;0.10;0.00;;;;;;;7.88;100.00;101467.19;5063137;28;20037;-59
2022/07/04 00:54:09;;;;;;;1.65;0.40;;;;;;;7.88;100.00;101461.09;5052142;28;20412;-59
2022/07/04 00:57:03;;;;;;;1.55;0.10;;;;;;;7.83;100.00;101465.00;5051179;28;20044;-60
2022/07/04 00:59:55;;;;;;;0.10;0.10;;;;;;;7.82;100.00;101467.78;5059628;28;20033;-59
2022/07/04 01:02:47;;;;;;;1.42;0.20;;;;;;;7.80;100.00;101461.84;5061859;28;20449;-59
2022/07/04 01:05:39;;;;;;;0.30;0.10;;;;;;;7.70;100.00;101471.63;5059371;28;20090;-59
2022/07/04 01:08:42;;;;;;;0.85;0.10;;;;;;;7.68;100.00;101473.56;5052466;28;20036;-59
2022/07/04 01:11:35;;;;;;;0.80;0.25;;;;;;;7.71;100.00;101462.72;5055744;28;20040;-58
2022/07/04 01:14:27;;;;;;;0.10;0.10;;;;;;;7.73;100.00;101460.78;5057630;28;20036;-59
2022/07/04 01:17:19;;;;;;;1.17;0.75;;;;;;;7.70;100.00;101467.19;5057108;28;20075;-59
2022/07/04 01:20:11;;;;;;;0.63;0.20;;;;;;;7.70;100.00;101466.34;5056236;28;20450;-55
2022/07/04 01:23:04;;;;;;;0.30;0.00;;;;;;;7.70;100.00;101471.63;5058008;28;20085;-56
2022/07/04 01:25:56;;;;;;;1.90;0.17;;;;;;;7.64;100.00;101476.53;5063198;28;20066;-56
2022/07/04 01:28:48;;;;;;;0.52;0.20;;;;;;;7.56;100.00;101476.44;5048371;28;20084;-59
2022/07/04 01:31:40;;;;;;;0.77;0.10;;;;;;;7.45;100.00;101478.41;5058701;28;20097;-58
2022/07/04 01:34:32;;;;;;;0.98;0.50;;;;;;;7.34;100.00;101474.16;5053590;28;20036;-57
2022/07/04 01:37:24;;;;;;;0.35;0.05;;;;;;;7.22;100.00;101474.31;5053852;28;20032;-60
2022/07/04 01:40:17;;;;;;;1.15;0.00;;;;;;;7.12;100.00;101473.53;5053389;28;20036;-60
2022/07/04 01:43:09;;;;;;;0.03;0.03;;;;;;;7.06;100.00;101462.75;5058879;28;20036;-60
2022/07/04 01:46:01;;;;;;;1.80;0.00;;;;;;;7.01;100.00;101468.44;5056434;28;20028;-59
2022/07/04 01:48:53;;;;;;;2.38;0.75;;;;;;;6.94;100.00;101465.56;5057644;28;20357;-58
2022/07/04 01:51:52;;;;;;;0.22;0.17;;;;;;;6.86;100.00;101467.22;5059841;28;20043;-58
2022/07/04 01:54:44;;;;;;;0.75;0.15;;;;;;;6.75;100.00;101466.44;5061839;28;20040;-58
2022/07/04 01:57:36;;;;;;;0.10;0.00;;;;;;;6.71;100.00;101461.56;5057029;28;20414;-56
2022/07/04 02:03:32;;;;;;;1.08;0.20;;;;;;;6.59;100.00;101454.81;5047732;28;20127;-59
2022/07/04 02:06:24;;;;;;;0.40;0.20;;;;;;;6.57;100.00;101457.59;5054710;28;20031;-60
2022/07/04 02:09:16;;;;;;;1.85;1.13;;;;;;;6.51;100.00;101448.44;5053209;28;20033;-58
2022/07/04 02:15:12;;;;;;;0.17;0.17;;;;;;;6.40;100.00;101453.00;5046765;28;20111;-59
2022/07/04 02:18:05;;;;;;;1.15;0.30;;;;;;;6.33;100.00;101450.13;5052445;28;20419;-59
2022/07/04 02:20:57;;;;;;;0.90;0.10;;;;;;;6.27;100.00;101440.97;5057250;28;20032;-58
2022/07/04 02:23:49;;;;;;;0.30;0.30;;;;;;;6.22;100.00;101444.97;5059499;28;20036;-60
2022/07/04 02:26:41;;;;;;;0.98;0.10;;;;;;;6.18;100.00;101447.06;5053820;28;20425;-59
2022/07/04 02:29:33;;;;;;;0.30;0.05;;;;;;;6.18;100.00;101435.72;5061480;28;20441;-56
2022/07/04 02:32:26;;;;;;;2.53;0.57;;;;;;;6.15;100.00;101436.00;5056881;28;20054;-59
2022/07/04 02:35:19;;;;;;;1.30;0.20;;;;;;;6.08;100.00;101430.44;5040286;28;20035;-59
2022/07/04 02:38:11;;;;;;;1.15;0.43;;;;;;;6.05;100.00;101421.00;5056154;28;20036;-59
2022/07/04 02:41:03;;;;;;;0.47;0.08;;;;;;;6.00;100.00;101420.59;5054257;28;20032;-55
2022/07/04 02:43:55;;;;;;;0.10;0.05;;;;;;;6.02;100.00;101425.75;5051310;28;20973;-55
2022/07/04 02:46:47;;;;;;;1.15;0.10;;;;;;;6.07;100.00;101428.78;5042810;28;20029;-52
2022/07/04 02:49:49;;;;;;;0.10;0.10;;;;;;;6.15;100.00;101421.03;5039428;28;20432;-55
2022/07/04 02:52:42;;;;;;;0.73;0.00;;;;;;;6.22;100.00;101424.78;5059022;28;20045;-58
2022/07/04 02:55:34;;;;;;;0.10;0.10;;;;;;;6.24;100.00;101430.69;5053604;28;20496;-59
2022/07/04 02:58:26;;;;;;;0.38;0.10;;;;;;;6.25;100.00;101427.13;5055748;28;20111;-59
2022/07/04 03:01:19;;;;;;;0.10;0.10;;;;;;;6.30;100.00;101409.09;5059335;28;20457;-56
2022/07/04 03:04:11;;;;;;;0.52;0.17;;;;;;;6.41;100.00;101402.84;5061666;28;20110;-59
2022/07/04 03:07:03;;;;;;;0.47;0.30;;;;;;;6.48;100.00;101411.00;5062204;28;20032;-57
2022/07/04 03:09:56;;;;;;;0.47;0.43;;;;;;;6.51;100.00;101421.25;5063614;28;20036;-59
2022/07/04 03:12:48;;;;;;;0.10;0.10;;;;;;;6.42;100.00;101417.66;5057860;28;20064;-56
2022/07/04 03:15:40;;;;;;;0.38;0.10;;;;;;;6.38;100.00;101424.19;5057620;28;20067;-60
2022/07/04 03:18:32;;;;;;;0.47;0.13;;;;;;;6.37;100.00;101430.41;5061883;28;20024;-59
2022/07/04 03:21:35;;;;;;;0.45;0.00;;;;;;;6.33;100.00;101415.88;5055048;28;20481;-58
2022/07/04 03:24:27;;;;;;;1.65;0.00;;;;;;;6.29;100.00;101411.84;5059086;28;20029;-59
2022/07/04 03:27:19;;;;;;;0.82;0.80;;;;;;;6.23;100.00;101426.41;5063962;28;20466;-60
2022/07/04 03:30:11;;;;;;;0.10;0.00;;;;;;;6.23;100.00;101425.59;5058269;28;20635;-59
2022/07/04 03:33:03;;;;;;;0.15;0.15;;;;;;;6.20;100.00;101442.50;5055837;28;20060;-61
2022/07/04 03:35:56;;;;;;;1.08;0.03;;;;;;;6.14;100.00;101445.69;5054279;28;20123;-57
2022/07/04 03:38:48;;;;;;;0.10;0.10;;;;;;;6.07;100.00;101448.03;5059597;28;20032;-62
2022/07/04 03:41:40;;;;;;;0.08;0.00;;;;;;;6.02;100.00;101452.06;5070102;28;20033;-62
2022/07/04 03:44:32;;;;;;;1.05;0.30;;;;;;;5.99;100.00;101447.91;5058941;28;20169;-62
2022/07/04 03:47:25;;;;;;;0.50;0.22;;;;;;;5.93;100.00;101458.09;5056554;28;20494;-57
2022/07/04 03:50:17;;;;;;;0.63;0.35;;;;;;;5.89;100.00;101468.09;5051492;28;20028;-55
2022/07/04 03:53:09;;;;;;;0.10;0.10;;;;;;;5.88;100.00;101469.03;5059502;28;20037;-58
2022/07/04 03:56:01;;;;;;;0.32;0.32;;;;;;;5.86;100.00;101478.88;5054305;28;20033;-55
2022/07/04 03:58:54;;;;;;;2.63;0.65;;;;;;;5.82;100.00;101483.56;5052449;28;20123;-56
2022/07/04 04:01:46;;;;;;;0.73;0.00;;;;;;;5.84;100.00;101475.56;5059453;28;20040;-51
2022/07/04 04:07:43;;;;;;;4.57;1.30;;;;;;;5.83;100.00;101484.41;5046205;28;20045;-55
2022/07/04 04:10:37;;;;;;;3.10;0.10;;;;;;;5.86;100.00;101503.41;5055273;28;20469;-56
2022/07/04 04:13:29;;;;;;;0.10;0.08;;;;;;;5.86;100.00;101497.28;5058723;28;20125;-51
2022/07/04 04:16:22;;;;;;;3.22;0.20;;;;;;;5.85;100.00;101499.09;5059972;28;20029;-57
2022/07/04 04:19:14;;;;;;;0.10;0.10;;;;;;;5.84;100.00;101504.50;5045081;28;20044;-56
2022/07/04 04:22:06;;;;;;;0.10;0.10;;;;;;;5.84;100.00;101502.72;5033956;28;20085;-55
2022/07/04 04:24:59;;;;;;;0.20;0.00;;;;;;;5.85;100.00;101503.53;5055906;28;20097;-59
2022/07/04 04:27:51;;;;;;;1.90;0.13;;;;;;;5.89;100.00;101500.50;5059624;28;20459;-58
2022/07/04 04:30:43;;;;;;;0.85;0.00;;;;;;;5.97;100.00;101506.94;5055558;28;20111;-57
2022/07/04 04:33:35;;;;;;;1.10;0.10;;;;;;;5.99;100.00;101503.19;5057616;28;20101;-58
2022/07/04 04:36:27;;;;;;;1.50;0.00;;;;;;;6.05;100.00;101500.00;5055820;28;20064;-55
2022/07/04 04:39:30;;;;;;;0.00;0.00;;;;;;;6.15;100.00;101497.38;5048027;28;20029;-58
2022/07/04 04:42:22;;;;;;;0.95;0.32;;;;;;;6.28;100.00;101505.03;5056332;28;20457;-59
2022/07/04 04:45:14;;;;;;;0.15;0.10;;;;;;;6.39;100.00;101509.31;5055644;28;20031;-58
2022/07/04 04:48:07;;;;;;;1.17;0.20;;;;;;;6.45;100.00;101493.78;5065983;28;20470;-58
2022/07/04 04:50:59;;;;;;;0.30;0.10;;;;;;;6.50;100.00;101490.72;5055048;28;20050;-57
2022/07/04 04:53:52;;;;;;;0.10;0.10;;;;;;;6.54;100.00;101492.94;5053071;28;20186;-59
2022/07/04 04:56:44;;;;;;;0.38;0.00;;;;;;;6.56;100.00;101500.72;5051165;28;20032;-58
2022/07/04 04:59:37;;;;;;;1.92;0.10;;;;;;;6.57;100.00;101497.09;5041723;28;20033;-59
2022/07/04 05:02:29;;;;;;;0.40;0.10;;;;;;;6.66;100.00;101495.41;5053132;28;20028;-58
2022/07/04 05:05:21;;;;;;;0.20;0.10;;;;;;;6.74;100.00;101491.13;5054756;28;20210;-59
2022/07/04 05:08:13;;;;;;;0.08;0.03;;;;;;;6.75;100.00;101487.50;5056057;28;20037;-60
2022/07/04 05:11:16;;;;;;;1.55;0.32;;;;;;;6.76;100.00;101494.47;5042361;28;20420;-59
2022/07/04 05:14:08;;;;;;;0.25;0.10;;;;;;;6.76;100.00;101493.59;5052396;28;20024;-57
2022/07/04 05:17:00;;;;;;;0.13;0.13;;;;;;;6.75;100.00;101495.41;5054470;28;20033;-54
2022/07/04 05:19:53;;;;;;;0.85;0.00;;;;;;;6.74;100.00;101492.94;5059514;28;20283;-52
2022/07/04 05:22:45;;;;;;;2.58;0.25;;;;;;;6.73;100.00;101500.00;5053457;28;20054;-55
2022/07/04 05:25:37;;;;;;;2.20;0.28;;;;;;;6.76;100.00;101505.00;5049973;28;20039;-59
2022/07/04 05:28:29;;;;;;;1.75;0.00;;;;;;;6.76;100.00;101505.00;5057294;28;20659;-57
2022/07/04 05:31:22;;;;;;;0.82;0.25;;;;;;;6.74;100.00;101492.94;5051494;28;20060;-58
2022/07/04 05:34:18;;;;;;;0.10;0.10;;;;;;;6.79;100.00;101498.63;5053155;28;20402;-59
2022/07/04 05:37:11;;;;;;;0.28;0.10;;;;;;;6.87;100.00;101498.75;5057734;28;20053;-59
2022/07/04 05:40:04;;;;;;;1.45;0.30;;;;;;;6.94;100.00;101499.00;5060508;28;20058;-54
2022/07/04 05:42:56;;;;;;;0.00;0.00;;;;;;;7.00;100.00;101490.53;5037842;28;20067;-58
2022/07/04 05:45:49;;;;;;;0.30;0.08;;;;;;;7.05;100.00;101497.97;5056224;28;20436;-57
2022/07/04 05:48:41;;;;;;;0.30;0.00;;;;;;;7.12;100.00;101494.63;5041628;28;20041;-59
2022/07/04 05:51:33;;;;;;;1.35;0.00;;;;;;;7.22;100.00;101498.06;5043485;28;20024;-57
2022/07/04 05:54:26;;;;;;;2.85;0.20;;;;;;;7.39;100.00;101500.94;5055053;28;20474;-57
2022/07/04 05:57:18;;;;;;;0.28;0.10;;;;;;;7.53;100.00;101503.09;5064805;28;20386;-60
2022/07/04 06:00:11;;;;;;;4.38;0.82;;;;;;;7.78;100.00;101500.75;5047711;28;20059;-57
2022/07/04 06:03:03;;;;;;;1.20;0.03;;;;;;;7.96;100.00;101504.25;5056617;28;20123;-58
2022/07/04 06:05:56;;;;;;;0.65;0.20;;;;;;;8.08;100.00;101502.25;5053555;28;20044;-57
2022/07/04 06:08:48;;;;;;;2.05;0.75;;;;;;;8.33;100.00;101492.72;5060530;28;20035;-57
2022/07/04 06:11:40;;;;;;;0.32;0.00;;;;;;;8.51;100.00;101490.91;5059738;28;20408;-58
2022/07/04 06:14:32;;;;;;;2.33;0.40;;;;;;;8.83;100.00;101486.03;5056573;28;20029;-58
2022/07/04 06:17:25;;;;;;;0.10;0.10;;;;;;;9.17;100.00;101488.75;5039324;28;20040;-58
2022/07/04 06:20:17;;;;;;;1.85;0.00;;;;;;;9.47;100.00;101483.91;5054752;28;20027;-50
2022/07/04 06:23:10;;;;;;;0.47;0.00;;;;;;;9.76;100.00;101480.88;5061632;28;20499;-53
2022/07/04 06:26:02;;;;;;;0.57;0.10;;;;;;;9.92;100.00;101483.56;5065827;28;20036;-56
2022/07/04 06:28:54;;;;;;;0.25;0.25;;;;;;;10.07;100.00;101465.22;5069654;28;20028;-43
2022/07/04 06:31:46;;;;;;;0.08;0.00;;;;;;;10.12;100.00;101454.09;5054760;28;20508;-50
2022/07/04 06:37:42;;;;;;;3.15;0.00;;;;;;;10.61;100.00;101441.72;5039222;28;20045;-48
2022/07/04 06:40:35;;;;;;;0.00;0.00;;;;;;;10.66;100.00;101439.41;5043872;28;20143;-45
2022/07/04 06:43:27;;;;;;;3.33;0.15;;;;;;;10.79;100.00;101440.69;5063419;28;20041;-48
2022/07/04 06:46:19;;;;;;;0.00;0.00;;;;;;;11.11;100.00;101435.31;5064698;28;20393;-50
2022/07/04 06:49:11;;;;;;;0.17;0.00;;;;;;;11.43;100.00;101433.50;5059143;28;20029;-52
2022/07/04 06:52:04;;;;;;;2.05;0.00;;;;;;;11.82;100.00;101429.97;5057714;28;20036;-58
2022/07/04 06:54:56;;;;;;;0.00;0.00;;;;;;;12.35;100.00;101412.31;5041257;28;20037;-55
2022/07/04 06:57:48;;;;;;;0.20;0.00;;;;;;;12.67;100.00;101402.38;5054595;28;20036;-61
2022/07/04 07:00:42;;;;;;;0.52;0.08;;;;;;;13.07;100.00;101397.63;5050742;28;20040;-62
2022/07/04 07:03:34;;;;;;;0.60;0.00;;;;;;;13.22;100.00;101405.59;5050773;28;20032;-62
2022/07/04 07:06:27;;;;;;;0.20;0.00;;;;;;;13.45;100.00;101408.13;5061800;28;20119;-61
2022/07/04 07:09:19;;;;;;;0.05;0.00;;;;;;;13.69;100.00;101410.47;5057805;28;20386;-45
2022/07/04 07:12:12;;;;;;;0.25;0.00;;;;;;;13.74;100.00;101378.75;5061815;28;20058;-55
2022/07/04 07:15:05;;;;;;;0.73;0.00;;;;;;;13.72;100.00;101371.97;5041689;28;20033;-48
2022/07/04 07:17:57;;;;;;;0.73;0.00;;;;;;;13.78;100.00;101395.16;5058827;28;20153;-49
2022/07/04 07:20:50;;;;;;;0.65;0.00;;;;;;;14.03;100.00;101392.97;5060832;28;20025;-58
2022/07/04 07:23:42;;;;;;;1.92;0.00;;;;;;;14.29;100.00;101391.53;5061446;28;20033;-63
2022/07/04 07:26:35;;;;;;;4.15;0.05;;;;;;;14.43;100.00;101385.28;5064270;28;20028;-63
2022/07/04 07:29:27;;;;;;;3.03;0.00;;;;;;;14.49;100.00;101375.69;5057248;28;20535;-63
2022/07/04 07:32:19;;;;;;;0.08;0.00;;;;;;;14.57;100.00;101381.72;5051892;28;20037;-57
2022/07/04 07:35:11;;;;;;;0.20;0.00;;;;;;;14.57;100.00;101384.38;5052557;28;20033;-55
2022/07/04 07:38:14;;;;;;;1.08;0.00;;;;;;;14.64;100.00;101372.91;5050219;28;20028;-50
2022/07/04 07:41:06;;;;;;;0.20;0.00;;;;;;;14.66;100.00;101365.53;5057714;28;20036;-61
2022/07/04 07:43:59;;;;;;;0.10;0.00;;;;;;;14.80;100.00;101367.28;5041171;28;20404;-59
2022/07/04 07:46:53;;;;;;;0.10;0.00;;;;;;;15.18;100.00;101366.81;5051235;28;20059;-52
2022/07/04 07:49:47;;;;;;;2.33;0.00;;;;;;;15.54;100.00;101368.38;5059806;28;20037;-55
2022/07/04 07:52:39;;;;;;;0.17;0.00;;;;;;;15.51;100.00;101371.44;5061245;28;20052;-54
2022/07/04 07:55:31;;;;;;;0.20;0.00;;;;;;;15.46;100.00;101372.91;5063333;28;20127;-60
2022/07/04 07:58:23;;;;;;;1.67;0.00;;;;;;;15.48;100.00;101384.19;5062060;28;20029;-62
2022/07/04 08:01:16;;;;;;;1.98;0.10;;;;;;;15.30;100.00;101380.44;5058059;28;20125;-56
2022/07/04 08:07:13;;;;;;;1.27;0.85;;;;;;;15.41;100.00;101371.81;5043458;28;20068;-61
2022/07/04 08:10:05;;;;;;;1.35;0.10;;;;;;;15.57;100.00;101368.81;5058910;28;20024;-62
2022/07/04 08:12:58;;;;;;;1.90;0.17;;;;;;;15.68;100.00;101380.75;5057289;28;20511;-59
2022/07/04 08:15:51;;;;;;;1.90;0.28;;;;;;;15.76;100.00;101366.41;5057362;28;20043;-49
2022/07/04 08:18:43;;;;;;;0.20;0.00;;;;;;;15.85;100.00;101368.69;5057522;28;20028;-50
2022/07/04 08:21:35;;;;;;;0.10;0.00;;;;;;;16.04;100.00;101372.38;5057572;28;20041;-54
2022/07/04 08:24:28;;;;;;;0.43;0.00;;;;;;;16.10;100.00;101366.19;5058401;28;20086;-62
2022/07/04 08:27:23;;;;;;;0.10;0.00;;;;;;;16.07;100.00;101363.13;5041490;28;20054;-62
2022/07/04 08:30:15;;;;;;;0.00;0.00;;;;;;;16.12;100.00;101360.66;5057539;28;20032;-63
2022/07/04 08:33:08;;;;;;;0.10;0.00;;;;;;;16.37;100.00;101366.22;5051033;28;20025;-64
2022/07/04 08:36:00;;;;;;;1.13;0.00;;;;;;;16.45;100.00;101373.19;5058935;28;20463;-61
2022/07/04 08:38:52;;;;;;;0.00;0.00;;;;;;;16.43;100.00;101375.25;5059853;28;20036;-63
2022/07/04 08:41:46;;;;;;;0.00;0.00;;;;;;;16.41;100.00;101372.78;5059407;28;20047;-62
2022/07/04 08:44:39;;;;;;;0.10;0.10;;;;;;;16.56;100.00;101362.66;5056915;28;20386;-61
2022/07/04 08:47:38;;;;;;;1.00;0.00;;;;;;;16.78;100.00;101373.16;5039714;28;20028;-58
2022/07/04 08:50:39;;;;;;;0.25;0.00;;;;;;;16.72;100.00;101369.41;5056973;28;20123;-56
2022/07/04 08:53:36;;;;;;;0.45;0.00;;;;;;;16.89;100.00;101363.66;5057174;28;20040;-55
2022/07/04 08:59:34;;;;;;;0.00;0.00;;;;;;;17.47;100.00;101365.44;5041974;28;20127;-55
2022/07/04 09:02:27;;;;;;;4.30;0.10;;;;;;;17.48;100.00;101359.88;5056113;28;20074;-52
2022/07/04 09:05:19;;;;;;;2.45;0.10;;;;;;;17.20;100.00;101357.53;5057905;28;20163;-61
2022/07/04 09:08:12;;;;;;;0.38;0.00;;;;;;;16.97;100.00;101358.06;5057411;28;20036;-59
2022/07/04 09:11:05;;;;;;;1.58;0.30;;;;;;;17.24;100.00;101369.47;5057271;28;20081;-62
2022/07/04 09:13:58;;;;;;;0.43;0.05;;;;;;;17.23;100.00;101365.16;5059458;28;20024;-47
2022/07/04 09:17:01;;;;;;;1.55;0.32;;;;;;;17.17;100.00;101360.66;5058430;28;20127;-60
2022/07/04 09:19:54;;;;;;;0.40;0.03;;;;;;;16.73;100.00;101363.03;5055639;28;20040;-63
2022/07/04 09:22:56;;;;;;;2.38;0.57;;;;;;;16.50;100.00;101358.16;5058602;28;20102;-57
2022/07/04 09:28:59;;;;;;;0.52;0.00;;;;;;;16.49;100.00;101367.19;5058927;28;20039;-49
2022/07/04 09:31:51;;;;;;;0.93;0.00;;;;;;;16.86;100.00;101370.25;5058634;28;20147;-52
2022/07/04 09:34:44;;;;;;;0.10;0.03;;;;;;;17.15;100.00;101363.53;5039383;28;20090;-63
2022/07/04 09:37:47;;;;;;;0.20;0.10;;;;;;;17.10;100.00;101359.84;5053982;28;20046;-58
2022/07/04 09:41:24;;;;;;;1.27;0.20;;;;;;;17.18;100.00;101362.28;5039492;28;20041;-61
2022/07/04 09:44:03;;;;;;;3.67;0.32;;;;;;;17.89;100.00;101358.59;5039055;28;20048;-57
2022/07/04 09:46:56;;;;;;;0.30;0.00;;;;;;;17.88;100.00;101354.25;5042190;28;20098;-51
2022/07/04 09:49:50;;;;;;;1.13;0.25;;;;;;;17.67;100.00;101350.88;5059696;28;20024;-69
2022/07/04 09:53:08;;;;;;;2.00;0.10;;;;;;;17.80;100.00;101368.75;5067681;28;20040;-63
2022/07/04 09:56:01;;;;;;;0.43;0.00;;;;;;;17.75;100.00;101360.50;5066273;28;20032;-61
2022/07/04 09:59:06;;;;;;;3.47;0.10;;;;;;;17.50;100.00;101351.59;5048785;28;20067;-47
2022/07/04 10:01:58;;;;;;;0.30;0.00;;;;;;;18.30;100.00;101350.00;5041520;28;20029;-46
2022/07/04 10:05:04;;;;;;;1.00;0.00;;;;;;;19.12;100.00;101354.28;5058936;28;20035;-48
2022/07/04 10:07:59;;;;;;;0.38;0.17;;;;;;;18.87;100.00;101349.84;5051727;28;20039;-49
2022/07/04 10:10:53;;;;;;;2.28;0.00;;;;;;;18.30;100.00;101357.19;5061370;28;20066;-59
2022/07/04 10:13:57;;;;;;;0.00;0.00;;;;;;;18.28;100.00;101353.94;5056478;28;20090;-63
2022/07/04 10:16:51;;;;;;;0.30;0.00;;;;;;;18.78;100.00;101342.28;5066393;28;20393;-64
2022/07/04 10:19:44;;;;;;;3.03;0.03;;;;;;;19.62;100.00;101335.19;5057481;28;20036;-56
2022/07/04 10:22:38;;;;;;;0.25;0.00;;;;;;;19.81;100.00;101344.81;5057361;28;20024;-67
2022/07/04 10:25:30;;;;;;;1.08;0.00;;;;;;;19.42;100.00;101345.41;5059382;28;20044;-57
2022/07/04 10:28:22;;;;;;;1.70;0.43;;;;;;;19.32;100.00;101338.69;5059692;28;20036;-50
2022/07/04 10:31:16;;;;;;;0.30;0.00;;;;;;;19.69;100.00;101335.09;5062319;28;20032;-55
2022/07/04 10:34:08;;;;;;;0.47;0.00;;;;;;;20.26;100.00;101328.13;5056862;28;20033;-54
2022/07/04 10:37:08;;;;;;;0.45;0.38;;;;;;;20.21;100.00;101338.78;5054504;28;20036;-55
2022/07/04 10:40:01;;;;;;;1.25;0.00;;;;;;;19.88;100.00;101319.66;5051062;28;20036;-50
2022/07/04 10:42:54;;;;;;;2.08;0.43;;;;;;;20.50;100.00;101322.72;5055461;28;20032;-46
2022/07/04 10:45:51;;;;;;;0.70;0.10;;;;;;;20.23;100.00;101331.28;5060340;28;20033;-50
2022/07/04 10:48:43;;;;;;;2.10;0.10;;;;;;;19.53;100.00;101342.75;5057114;28;20028;-56
2022/07/04 10:51:49;;;;;;;0.20;0.00;;;;;;;19.34;100.00;101336.59;5059226;28;20476;-67
2022/07/04 10:54:48;;;;;;;0.70;0.00;;;;;;;19.33;100.00;101342.19;5044577;28;20400;-50
2022/07/04 10:57:46;;;;;;;1.23;0.10;;;;;;;19.65;100.00;101332.03;5055355;28;20048;-63
2022/07/04 11:00:38;;;;;;;5.63;0.10;;;;;;;20.55;100.00;101322.88;5061264;28;20375;-54
2022/07/04 11:03:34;;;;;;;1.40;0.75;;;;;;;20.77;100.00;101327.63;5047095;28;20111;-52
2022/07/04 11:06:48;;;;;;;0.20;0.00;;;;;;;20.30;100.00;101327.66;5038203;28;20462;-55
2022/07/04 11:09:42;;;;;;;0.30;0.00;;;;;;;20.26;100.00;101327.28;5036238;28;20041;-58
2022/07/04 11:12:35;;;;;;;0.10;0.10;;;;;;;20.41;100.00;101330.34;5053552;28;20094;-49
2022/07/04 11:15:38;;;;;;;0.10;0.00;;;;;;;20.07;100.00;101329.28;5057768;28;20112;-52
2022/07/04 11:18:32;;;;;;;5.28;0.13;;;;;;;19.58;100.00;101331.28;5046017;28;20036;-60
2022/07/04 11:21:33;;;;;;;1.08;0.00;;;;;;;19.80;100.00;101323.53;5059086;28;20040;-59
2022/07/04 11:24:26;;;;;;;0.43;0.00;;;;;;;20.18;100.00;101325.78;5056128;28;20078;-51
2022/07/04 11:27:18;;;;;;;2.35;0.00;;;;;;;19.43;100.00;101320.16;5070826;28;20032;-47
2022/07/04 11:30:11;;;;;;;0.30;0.30;;;;;;;19.48;100.00;101309.53;5054830;28;20476;-45
2022/07/04 11:33:04;;;;;;;0.15;0.00;;;;;;;19.36;100.00;101317.53;5034209;28;20039;-46
2022/07/04 11:36:08;;;;;;;2.92;0.10;;;;;;;19.60;100.00;101319.25;5055390;28;20029;-51
2022/07/04 11:39:05;;;;;;;0.40;0.00;;;;;;;20.13;100.00;101312.19;5045730;28;20037;-53
2022/07/04 11:45:04;;;;;;;0.00;0.00;;;;;;;20.03;100.00;101311.97;5041223;28;20040;-63
2022/07/04 11:47:59;;;;;;;0.10;0.10;;;;;;;19.90;100.00;101317.56;5056296;28;20567;-53
2022/07/04 11:50:52;;;;;;;1.05;0.00;;;;;;;20.26;100.00;101309.28;5028753;28;20536;-47
2022/07/04 11:53:44;;;;;;;2.08;0.00;;;;;;;20.93;100.00;101299.91;5051077;28;20409;-47
2022/07/04 11:56:36;;;;;;;0.35;0.10;;;;;;;21.46;100.00;101306.84;5054039;28;20468;-58
2022/07/04 11:59:30;;;;;;;0.50;0.00;;;;;;;21.27;100.00;101310.78;5051028;28;20116;-63
2022/07/04 12:02:34;;;;;;;0.00;0.00;;;;;;;20.71;100.00;101313.22;5066555;28;20035;-59
2022/07/04 12:05:27;;;;;;;1.10;0.22;;;;;;;20.60;100.00;101320.28;5040762;28;20064;-49
2022/07/04 12:08:20;;;;;;;0.20;0.00;;;;;;;20.46;100.00;101316.16;5034533;28;20028;-54
2022/07/04 12:11:12;;;;;;;1.10;0.00;;;;;;;20.39;100.00;101321.66;5064423;28;20523;-52
2022/07/04 12:14:04;;;;;;;0.28;0.00;;;;;;;20.34;100.00;101318.88;5052963;28;20029;-53
2022/07/04 12:16:57;;;;;;;0.32;0.00;;;;;;;20.51;100.00;101318.97;5026323;28;20052;-50
2022/07/04 12:20:00;;;;;;;1.38;0.57;;;;;;;20.63;100.00;101313.59;5057600;28;20412;-52
2022/07/04 12:23:00;;;;;;;1.13;0.00;;;;;;;20.40;100.00;101319.81;5033963;28;20057;-49
2022/07/04 12:25:55;;;;;;;0.28;0.28;;;;;;;20.34;100.00;101313.50;5055963;28;20172;-57
2022/07/04 12:28:52;;;;;;;0.17;0.00;;;;;;;20.36;100.00;101310.56;5039062;28;20047;-52
2022/07/04 12:31:59;;;;;;;0.25;0.00;;;;;;;20.07;100.00;101310.44;5062017;28;20127;-53
2022/07/04 12:34:54;;;;;;;2.85;0.05;;;;;;;19.98;100.00;101311.84;5056220;28;20115;-50
2022/07/04 12:37:46;;;;;;;0.90;0.00;;;;;;;19.86;100.00;101306.47;5056581;28;20029;-51
2022/07/04 12:40:39;;;;;;;0.10;0.00;;;;;;;20.23;100.00;101309.72;5054476;28;20045;-54
2022/07/04 12:43:33;;;;;;;1.30;0.15;;;;;;;20.31;100.00;101313.94;5057114;28;20040;-67
2022/07/04 12:46:38;;;;;;;2.90;0.20;;;;;;;20.46;100.00;101316.16;5061588;28;20036;-48
2022/07/04 12:49:34;;;;;;;1.83;0.00;;;;;;;20.64;100.00;101309.84;5053350;28;20166;-49
2022/07/04 12:52:28;;;;;;;0.20;0.00;;;;;;;21.35;100.00;101316.63;5056178;28;20040;-55
2022/07/04 12:55:23;;;;;;;0.10;0.10;;;;;;;21.31;99.38;101318.16;5057099;28;20489;-63
2022/07/04 12:58:15;;;;;;;0.77;0.00;;;;;;;21.21;100.00;101312.56;5052508;28;20385;-46
2022/07/04 13:01:07;;;;;;;0.17;0.10;;;;;;;21.40;97.11;101317.78;5057443;28;20155;-57
2022/07/04 13:04:00;;;;;;;0.17;0.00;;;;;;;21.29;98.05;101308.66;5059894;28;20123;-58
2022/07/04 13:06:52;;;;;;;2.42;0.85;;;;;;;21.00;99.55;101310.56;5055874;28;20112;-45
2022/07/04 13:09:45;;;;;;;0.10;0.00;;;;;;;21.07;100.00;101311.25;5053753;28;20051;-63
2022/07/04 13:12:37;;;;;;;1.23;0.32;;;;;;;20.63;100.00;101314.41;5059760;28;20045;-53
2022/07/04 13:15:29;;;;;;;0.55;0.00;;;;;;;20.49;100.00;101310.28;5050774;28;20028;-52
2022/07/04 13:18:22;;;;;;;0.10;0.10;;;;;;;20.37;100.00;101312.22;5052184;28;20188;-53
2022/07/04 13:21:14;;;;;;;1.17;0.05;;;;;;;20.49;100.00;101307.59;5054880;28;20527;-49
2022/07/04 13:24:06;;;;;;;1.10;0.10;;;;;;;20.34;100.00;101315.34;5049515;28;20055;-48
2022/07/04 13:26:58;;;;;;;0.45;0.00;;;;;;;20.60;100.00;101308.66;5049435;28;20043;-56
2022/07/04 13:30:01;;;;;;;1.80;0.08;;;;;;;20.83;100.00;101305.09;5062803;28;20028;-59
2022/07/04 13:32:54;;;;;;;2.70;0.20;;;;;;;20.48;100.00;101304.09;5052896;28;20040;-51
2022/07/04 13:35:46;;;;;;;0.47;0.10;;;;;;;20.30;100.00;101314.19;5049902;28;20051;-59
2022/07/04 13:38:38;;;;;;;1.33;0.55;;;;;;;20.69;100.00;101309.94;5069112;28;20063;-46
2022/07/04 13:41:30;;;;;;;0.95;0.17;;;;;;;20.88;100.00;101324.06;5063861;28;20024;-44
2022/07/04 13:44:23;;;;;;;3.35;0.00;;;;;;;20.45;100.00;101312.66;5053236;28;20040;-60
2022/07/04 13:47:15;;;;;;;0.47;0.15;;;;;;;20.41;100.00;101329.53;5056508;28;20031;-43
2022/07/04 13:50:07;;;;;;;0.10;0.00;;;;;;;20.47;100.00;101318.63;5060334;28;20029;-44